Back to Top

Language: 

My Weather Underground Personal Weather Station Historical Data with Graphs...

Delerius Weather Station Historical Data
Daily Summary for January 13, 2017 Units:  Both    English   Metric
« Previous Day
Next Day »
Daily Weekly Monthly Yearly Custom
  High: Low: Average:
Temperature: 42.1 °F /  5.6 °C 32.1 °F /  0.1 °C 36.1 °F /  2.3 °C
Dew Point: 34.2 °F /  1.2 °C 24.5 °F /  -4.2 °C 30.2 °F /  -1 °C
Humidity: 94 % 68 % 79 %
Wind Speed: 23.0 mph /  37 km/h - 10.9 mph /  17.5 km/h
Wind Gust: 40.0 mph /  64.4 km/h - -
Wind:- - WNW
Pressure: 30.00 in /  1015.8 hPa 29.49 in /  998.5 hPa -
Precipitation: 0.05 in /  1.27 mm    
Historical Graphs
 
 
Tabular Data for January 13, 2017
Time Temperature Dew Point Pressure Wind Wind Speed Wind Gust Humidity Rainfall Rate (Hourly) solar Conditions
00:00 34.2 °F /  1.2 °C 31.0 °F /  -0.6 °C 29.49 in /  998.5 hPa WNW 9.0 mph /  14.5 km/h 35.0 mph /  56.3 km/h 88 % 0.00 in /  0 mm 0 W/m2
00:05 34.1 °F /  1.2 °C 30.9 °F /  -0.6 °C 29.50 in /  998.9 hPa NW 9.0 mph /  14.5 km/h 35.0 mph /  56.3 km/h 88 % 0.00 in /  0 mm 0 W/m2
00:15 34.1 °F /  1.2 °C 30.9 °F /  -0.6 °C 29.50 in /  998.9 hPa WNW 8.0 mph /  12.9 km/h 11.0 mph /  17.7 km/h 88 % 0.00 in /  0 mm 0 W/m2
00:20 34.0 °F /  1.1 °C 30.8 °F /  -0.7 °C 29.50 in /  998.9 hPa NW 7.0 mph /  11.3 km/h 12.0 mph /  19.3 km/h 88 % 0.00 in /  0 mm 0 W/m2
00:25 34.0 °F /  1.1 °C 30.8 °F /  -0.7 °C 29.50 in /  998.9 hPa WNW 9.0 mph /  14.5 km/h 12.0 mph /  19.3 km/h 88 % 0.00 in /  0 mm 0 W/m2
00:30 34.0 °F /  1.1 °C 30.8 °F /  -0.7 °C 29.51 in /  999.2 hPa WNW 9.0 mph /  14.5 km/h 9.0 mph /  14.5 km/h 88 % 0.00 in /  0 mm 0 W/m2
00:40 33.8 °F /  1 °C 30.6 °F /  -0.8 °C 29.51 in /  999.2 hPa WNW 8.0 mph /  12.9 km/h 11.0 mph /  17.7 km/h 88 % 0.00 in /  0 mm 0 W/m2
00:45 33.8 °F /  1 °C 30.6 °F /  -0.8 °C 29.52 in /  999.5 hPa West 9.0 mph /  14.5 km/h 11.0 mph /  17.7 km/h 88 % 0.00 in /  0 mm 0 W/m2
00:50 33.7 °F /  0.9 °C 30.5 °F /  -0.8 °C 29.52 in /  999.5 hPa WNW 8.0 mph /  12.9 km/h 8.0 mph /  12.9 km/h 88 % 0.00 in /  0 mm 0 W/m2
00:55 33.7 °F /  0.9 °C 30.5 °F /  -0.8 °C 29.52 in /  999.5 hPa NW 9.0 mph /  14.5 km/h 9.0 mph /  14.5 km/h 88 % 0.00 in /  0 mm 0 W/m2
01:00 33.7 °F /  0.9 °C 30.5 °F /  -0.8 °C 29.53 in /  999.9 hPa NW 9.0 mph /  14.5 km/h 10.0 mph /  16.1 km/h 88 % 0.00 in /  0 mm 0 W/m2
01:05 33.6 °F /  0.9 °C 30.1 °F /  -1.1 °C 29.53 in /  999.9 hPa WNW 8.0 mph /  12.9 km/h 18.0 mph /  29 km/h 87 % 0.00 in /  0 mm 0 W/m2
01:15 33.6 °F /  0.9 °C 30.1 °F /  -1.1 °C 29.54 in /  1000.2 hPa WNW 8.0 mph /  12.9 km/h 11.0 mph /  17.7 km/h 87 % 0.00 in /  0 mm 0 W/m2
01:20 33.5 °F /  0.8 °C 30.0 °F /  -1.1 °C 29.53 in /  999.9 hPa WNW 7.0 mph /  11.3 km/h 7.0 mph /  11.3 km/h 87 % 0.00 in /  0 mm 0 W/m2
01:25 33.4 °F /  0.8 °C 29.9 °F /  -1.2 °C 29.54 in /  1000.2 hPa WNW 7.0 mph /  11.3 km/h 9.0 mph /  14.5 km/h 87 % 0.00 in /  0 mm 0 W/m2
01:30 33.2 °F /  0.7 °C 29.8 °F /  -1.2 °C 29.54 in /  1000.2 hPa WNW 7.0 mph /  11.3 km/h 18.0 mph /  29 km/h 87 % 0.00 in /  0 mm 0 W/m2
01:35 33.1 °F /  0.6 °C 29.7 °F /  -1.3 °C 29.54 in /  1000.2 hPa West 8.0 mph /  12.9 km/h 18.0 mph /  29 km/h 87 % 0.00 in /  0 mm 0 W/m2
01:40 33.0 °F /  0.6 °C 29.6 °F /  -1.3 °C 29.54 in /  1000.2 hPa West 8.0 mph /  12.9 km/h 8.0 mph /  12.9 km/h 87 % 0.00 in /  0 mm 0 W/m2
01:45 32.9 °F /  0.5 °C 29.5 °F /  -1.4 °C 29.55 in /  1000.6 hPa WNW 8.0 mph /  12.9 km/h 18.0 mph /  29 km/h 87 % 0.00 in /  0 mm 0 W/m2
01:55 32.8 °F /  0.4 °C 29.4 °F /  -1.4 °C 29.55 in /  1000.6 hPa NW 6.0 mph /  9.7 km/h 18.0 mph /  29 km/h 87 % 0.00 in /  0 mm 0 W/m2
02:00 32.7 °F /  0.4 °C 29.3 °F /  -1.5 °C 29.55 in /  1000.6 hPa WNW 5.0 mph /  8 km/h 18.0 mph /  29 km/h 87 % 0.00 in /  0 mm 0 W/m2
02:05 32.6 °F /  0.3 °C 29.2 °F /  -1.6 °C 29.55 in /  1000.6 hPa WNW 6.0 mph /  9.7 km/h 18.0 mph /  29 km/h 87 % 0.00 in /  0 mm 0 W/m2
02:10 32.6 °F /  0.3 °C 29.2 °F /  -1.6 °C 29.56 in /  1000.9 hPa WNW 7.0 mph /  11.3 km/h 18.0 mph /  29 km/h 87 % 0.00 in /  0 mm 0 W/m2
02:15 32.6 °F /  0.3 °C 29.2 °F /  -1.6 °C 29.56 in /  1000.9 hPa NW 8.0 mph /  12.9 km/h 18.0 mph /  29 km/h 87 % 0.00 in /  0 mm 0 W/m2
02:20 32.6 °F /  0.3 °C 29.2 °F /  -1.6 °C 29.56 in /  1000.9 hPa WNW 9.0 mph /  14.5 km/h 18.0 mph /  29 km/h 87 % 0.00 in /  0 mm 0 W/m2
02:30 32.8 °F /  0.4 °C 29.4 °F /  -1.4 °C 29.57 in /  1001.2 hPa WNW 9.0 mph /  14.5 km/h 18.0 mph /  29 km/h 87 % 0.00 in /  0 mm 0 W/m2
02:35 32.8 °F /  0.4 °C 29.4 °F /  -1.4 °C 29.57 in /  1001.2 hPa WNW 9.0 mph /  14.5 km/h 18.0 mph /  29 km/h 87 % 0.00 in /  0 mm 0 W/m2
02:40 32.8 °F /  0.4 °C 29.1 °F /  -1.6 °C 29.57 in /  1001.2 hPa WNW 10.0 mph /  16.1 km/h 18.0 mph /  29 km/h 86 % 0.00 in /  0 mm 0 W/m2
02:45 32.8 °F /  0.4 °C 29.1 °F /  -1.6 °C 29.57 in /  1001.2 hPa West 9.0 mph /  14.5 km/h 18.0 mph /  29 km/h 86 % 0.00 in /  0 mm 0 W/m2
02:50 32.8 °F /  0.4 °C 29.1 °F /  -1.6 °C 29.58 in /  1001.6 hPa NW 9.0 mph /  14.5 km/h 9.0 mph /  14.5 km/h 86 % 0.00 in /  0 mm 0 W/m2
02:55 32.8 °F /  0.4 °C 29.1 °F /  -1.6 °C 29.57 in /  1001.2 hPa WNW 8.0 mph /  12.9 km/h 18.0 mph /  29 km/h 86 % 0.00 in /  0 mm 0 W/m2
03:05 32.6 °F /  0.3 °C 28.6 °F /  -1.9 °C 29.57 in /  1001.2 hPa West 7.0 mph /  11.3 km/h 18.0 mph /  29 km/h 85 % 0.00 in /  0 mm 0 W/m2
03:10 32.6 °F /  0.3 °C 28.6 °F /  -1.9 °C 29.57 in /  1001.2 hPa WNW 7.0 mph /  11.3 km/h 18.0 mph /  29 km/h 85 % 0.00 in /  0 mm 0 W/m2
03:15 32.8 °F /  0.4 °C 28.5 °F /  -1.9 °C 29.57 in /  1001.2 hPa WNW 10.0 mph /  16.1 km/h 18.0 mph /  29 km/h 84 % 0.00 in /  0 mm 0 W/m2
03:20 33.0 °F /  0.6 °C 28.7 °F /  -1.8 °C 29.58 in /  1001.6 hPa WNW 12.0 mph /  19.3 km/h 18.0 mph /  29 km/h 84 % 0.00 in /  0 mm 0 W/m2
03:25 33.3 °F /  0.7 °C 28.7 °F /  -1.8 °C 29.57 in /  1001.2 hPa WNW 12.0 mph /  19.3 km/h 18.0 mph /  29 km/h 83 % 0.00 in /  0 mm 0 W/m2
03:35 33.5 °F /  0.8 °C 28.6 °F /  -1.9 °C 29.57 in /  1001.2 hPa WNW 13.0 mph /  20.9 km/h 18.0 mph /  29 km/h 82 % 0.00 in /  0 mm 0 W/m2
03:40 33.6 °F /  0.9 °C 28.4 °F /  -2 °C 29.58 in /  1001.6 hPa WNW 13.0 mph /  20.9 km/h 13.0 mph /  20.9 km/h 81 % 0.00 in /  0 mm 0 W/m2
03:50 33.5 °F /  0.8 °C 28.6 °F /  -1.9 °C 29.58 in /  1001.6 hPa WNW 13.0 mph /  20.9 km/h 13.0 mph /  20.9 km/h 82 % 0.00 in /  0 mm 0 W/m2
03:55 33.4 °F /  0.8 °C 28.5 °F /  -1.9 °C 29.58 in /  1001.6 hPa WNW 12.0 mph /  19.3 km/h 18.0 mph /  29 km/h 82 % 0.00 in /  0 mm 0 W/m2
04:00 33.4 °F /  0.8 °C 28.5 °F /  -1.9 °C 29.57 in /  1001.2 hPa WNW 11.0 mph /  17.7 km/h 18.0 mph /  29 km/h 82 % 0.00 in /  0 mm 0 W/m2
04:05 33.4 °F /  0.8 °C 28.2 °F /  -2.1 °C 29.57 in /  1001.2 hPa West 11.0 mph /  17.7 km/h 18.0 mph /  29 km/h 81 % 0.00 in /  0 mm 0 W/m2
04:10 33.5 °F /  0.8 °C 28.0 °F /  -2.2 °C 29.57 in /  1001.2 hPa WNW 11.0 mph /  17.7 km/h 18.0 mph /  29 km/h 80 % 0.00 in /  0 mm 0 W/m2
04:20 33.8 °F /  1 °C 27.7 °F /  -2.4 °C 29.57 in /  1001.2 hPa West 12.0 mph /  19.3 km/h 18.0 mph /  29 km/h 78 % 0.00 in /  0 mm 0 W/m2
04:25 33.9 °F /  1.1 °C 27.4 °F /  -2.6 °C 29.58 in /  1001.6 hPa WNW 13.0 mph /  20.9 km/h 18.0 mph /  29 km/h 77 % 0.00 in /  0 mm 0 W/m2
04:30 33.9 °F /  1.1 °C 27.4 °F /  -2.6 °C 29.58 in /  1001.6 hPa West 12.0 mph /  19.3 km/h 12.0 mph /  19.3 km/h 77 % 0.00 in /  0 mm 0 W/m2
04:35 34.0 °F /  1.1 °C 27.9 °F /  -2.3 °C 29.58 in /  1001.6 hPa WNW 13.0 mph /  20.9 km/h 26.0 mph /  41.8 km/h 78 % 0.00 in /  0 mm 0 W/m2
04:40 34.0 °F /  1.1 °C 28.2 °F /  -2.1 °C 29.58 in /  1001.6 hPa WNW 14.0 mph /  22.5 km/h 14.0 mph /  22.5 km/h 79 % 0.00 in /  0 mm 0 W/m2
04:45 34.1 °F /  1.2 °C 28.6 °F /  -1.9 °C 29.58 in /  1001.6 hPa NW 13.0 mph /  20.9 km/h 18.0 mph /  29 km/h 80 % 0.00 in /  0 mm 0 W/m2
04:54 34.0 °F /  1.1 °C 28.8 °F /  -1.8 °C 29.57 in /  1001.2 hPa WNW 12.0 mph /  19.3 km/h 18.0 mph /  29 km/h 81 % 0.00 in /  0 mm 0 W/m2
05:00 34.1 °F /  1.2 °C 28.9 °F /  -1.7 °C 29.58 in /  1001.6 hPa WNW 13.0 mph /  20.9 km/h 18.0 mph /  29 km/h 81 % 0.00 in /  0 mm 0 W/m2
05:05 34.4 °F /  1.3 °C 28.9 °F /  -1.7 °C 29.57 in /  1001.2 hPa West 17.0 mph /  27.4 km/h 21.0 mph /  33.8 km/h 80 % 0.00 in /  0 mm 0 W/m2
05:10 34.6 °F /  1.4 °C 29.1 °F /  -1.6 °C 29.57 in /  1001.2 hPa WNW 17.0 mph /  27.4 km/h 19.0 mph /  30.6 km/h 80 % 0.00 in /  0 mm 0 W/m2
05:15 34.7 °F /  1.5 °C 28.9 °F /  -1.7 °C 29.57 in /  1001.2 hPa NW 17.0 mph /  27.4 km/h 19.0 mph /  30.6 km/h 79 % 0.00 in /  0 mm 0 W/m2
05:20 34.9 °F /  1.6 °C 28.7 °F /  -1.8 °C 29.57 in /  1001.2 hPa NW 18.0 mph /  29 km/h 18.0 mph /  29 km/h 78 % 0.00 in /  0 mm 0 W/m2
05:30 35.0 °F /  1.7 °C 29.1 °F /  -1.6 °C 29.57 in /  1001.2 hPa West 15.0 mph /  24.1 km/h 15.0 mph /  24.1 km/h 79 % 0.00 in /  0 mm 0 W/m2
05:40 35.0 °F /  1.7 °C 29.5 °F /  -1.4 °C 29.56 in /  1000.9 hPa WNW 14.0 mph /  22.5 km/h 18.0 mph /  29 km/h 80 % 0.00 in /  0 mm 0 W/m2
05:45 35.0 °F /  1.7 °C 29.5 °F /  -1.4 °C 29.56 in /  1000.9 hPa WNW 15.0 mph /  24.1 km/h 18.0 mph /  29 km/h 80 % 0.00 in /  0 mm 0 W/m2
05:50 35.1 °F /  1.7 °C 29.9 °F /  -1.2 °C 29.55 in /  1000.6 hPa WSW 15.0 mph /  24.1 km/h 15.0 mph /  24.1 km/h 81 % 0.00 in /  0 mm 0 W/m2
05:55 35.2 °F /  1.8 °C 30.0 °F /  -1.1 °C 29.55 in /  1000.6 hPa WSW 16.0 mph /  25.7 km/h 16.0 mph /  25.7 km/h 81 % 0.00 in /  0 mm 0 W/m2
06:00 35.2 °F /  1.8 °C 30.6 °F /  -0.8 °C 29.55 in /  1000.6 hPa WNW 16.0 mph /  25.7 km/h 21.0 mph /  33.8 km/h 83 % 0.00 in /  0 mm 0 W/m2
06:05 35.1 °F /  1.7 °C 30.8 °F /  -0.7 °C 29.56 in /  1000.9 hPa WNW 19.0 mph /  30.6 km/h 26.0 mph /  41.8 km/h 84 % 0.00 in /  0 mm 0 W/m2
06:15 35.1 °F /  1.7 °C 31.0 °F /  -0.6 °C 29.55 in /  1000.6 hPa WNW 19.0 mph /  30.6 km/h 40.0 mph /  64.4 km/h 85 % 0.00 in /  0 mm 0 W/m2
06:20 35.2 °F /  1.8 °C 31.1 °F /  -0.5 °C 29.55 in /  1000.6 hPa WNW 20.0 mph /  32.2 km/h 20.0 mph /  32.2 km/h 85 % 0.00 in /  0 mm 0 W/m2
06:25 35.1 °F /  1.7 °C 31.3 °F /  -0.4 °C 29.56 in /  1000.9 hPa NW 20.0 mph /  32.2 km/h 31.0 mph /  49.9 km/h 86 % 0.00 in /  0 mm 0 W/m2
06:30 35.1 °F /  1.7 °C 31.6 °F /  -0.2 °C 29.56 in /  1000.9 hPa WNW 19.0 mph /  30.6 km/h 23.0 mph /  37 km/h 87 % 0.00 in /  0 mm 0 W/m2
06:35 35.1 °F /  1.7 °C 31.9 °F /  -0.1 °C 29.56 in /  1000.9 hPa WNW 19.0 mph /  30.6 km/h 23.0 mph /  37 km/h 88 % 0.00 in /  0 mm 0 W/m2
06:40 35.1 °F /  1.7 °C 31.9 °F /  -0.1 °C 29.56 in /  1000.9 hPa WNW 21.0 mph /  33.8 km/h 28.0 mph /  45.1 km/h 88 % 0.00 in /  0 mm 0 W/m2
06:50 35.1 °F /  1.7 °C 32.2 °F /  0.1 °C 29.57 in /  1001.2 hPa WNW 20.0 mph /  32.2 km/h 25.0 mph /  40.2 km/h 89 % 0.00 in /  0 mm 0 W/m2
06:55 34.9 °F /  1.6 °C 32.3 °F /  0.2 °C 29.56 in /  1000.9 hPa WNW 20.0 mph /  32.2 km/h 25.0 mph /  40.2 km/h 90 % 0.00 in /  0 mm 0 W/m2
07:00 34.7 °F /  1.5 °C 32.3 °F /  0.2 °C 29.56 in /  1000.9 hPa WNW 18.0 mph /  29 km/h 28.0 mph /  45.1 km/h 91 % 0.00 in /  0 mm 0 W/m2
07:05 34.7 °F /  1.5 °C 32.6 °F /  0.3 °C 29.57 in /  1001.2 hPa West 19.0 mph /  30.6 km/h 28.0 mph /  45.1 km/h 92 % 0.00 in /  0 mm 0 W/m2
07:10 34.7 °F /  1.5 °C 32.6 °F /  0.3 °C 29.57 in /  1001.2 hPa WNW 21.0 mph /  33.8 km/h 21.0 mph /  33.8 km/h 92 % 0.00 in /  0 mm 0 W/m2
07:15 34.6 °F /  1.4 °C 32.5 °F /  0.3 °C 29.57 in /  1001.2 hPa WNW 23.0 mph /  37 km/h 29.0 mph /  46.7 km/h 92 % 0.00 in /  0 mm 0 W/m2
07:20 34.5 °F /  1.4 °C 32.7 °F /  0.4 °C 29.57 in /  1001.2 hPa WNW 22.0 mph /  35.4 km/h 22.0 mph /  35.4 km/h 93 % 0.00 in /  0 mm 0 W/m2
07:30 34.6 °F /  1.4 °C 32.8 °F /  0.4 °C 29.57 in /  1001.2 hPa WNW 19.0 mph /  30.6 km/h 25.0 mph /  40.2 km/h 93 % 0.09 in /  2.29 mm 0 W/m2
07:35 34.8 °F /  1.6 °C 33.2 °F /  0.7 °C 29.57 in /  1001.2 hPa WNW 20.0 mph /  32.2 km/h 25.0 mph /  40.2 km/h 94 % 0.09 in /  2.29 mm 0 W/m2
07:40 34.9 °F /  1.6 °C 33.1 °F /  0.6 °C 29.58 in /  1001.6 hPa WNW 19.0 mph /  30.6 km/h 25.0 mph /  40.2 km/h 93 % 0.07 in /  1.78 mm 0 W/m2
07:45 35.1 °F /  1.7 °C 33.3 °F /  0.7 °C 29.58 in /  1001.6 hPa West 19.0 mph /  30.6 km/h 25.0 mph /  40.2 km/h 93 % 0.07 in /  1.78 mm 0 W/m2
07:50 35.3 °F /  1.8 °C 33.5 °F /  0.8 °C 29.58 in /  1001.6 hPa WNW 20.0 mph /  32.2 km/h 20.0 mph /  32.2 km/h 93 % 0.07 in /  1.78 mm 0 W/m2
07:55 35.4 °F /  1.9 °C 33.6 °F /  0.9 °C 29.59 in /  1001.9 hPa WNW 18.0 mph /  29 km/h 20.0 mph /  32.2 km/h 93 % 0.07 in /  1.78 mm 0 W/m2
08:00 35.7 °F /  2.1 °C 33.9 °F /  1.1 °C 29.59 in /  1001.9 hPa WNW 17.0 mph /  27.4 km/h 17.0 mph /  27.4 km/h 93 % 0.05 in /  1.27 mm 0 W/m2
08:10 36.0 °F /  2.2 °C 33.9 °F /  1.1 °C 29.59 in /  1001.9 hPa WNW 16.0 mph /  25.7 km/h 16.0 mph /  25.7 km/h 92 % 0.00 in /  0 mm 0 W/m2
08:15 36.1 °F /  2.3 °C 33.7 °F /  0.9 °C 29.59 in /  1001.9 hPa WNW 16.0 mph /  25.7 km/h 18.0 mph /  29 km/h 91 % 0.00 in /  0 mm 0 W/m2
08:20 36.3 °F /  2.4 °C 33.9 °F /  1.1 °C 29.60 in /  1002.3 hPa WNW 17.0 mph /  27.4 km/h 17.0 mph /  27.4 km/h 91 % 0.00 in /  0 mm 0 W/m2
08:25 36.4 °F /  2.4 °C 33.7 °F /  0.9 °C 29.61 in /  1002.6 hPa WNW 15.0 mph /  24.1 km/h 18.0 mph /  29 km/h 90 % 0.00 in /  0 mm 7 W/m2
08:30 36.5 °F /  2.5 °C 33.6 °F /  0.9 °C 29.61 in /  1002.6 hPa NW 15.0 mph /  24.1 km/h 22.0 mph /  35.4 km/h 89 % 0.00 in /  0 mm 11 W/m2
08:35 36.8 °F /  2.7 °C 33.6 °F /  0.9 °C 29.62 in /  1002.9 hPa WNW 16.0 mph /  25.7 km/h 22.0 mph /  35.4 km/h 88 % 0.00 in /  0 mm 11 W/m2
08:40 37.0 °F /  2.8 °C 33.5 °F /  0.8 °C 29.62 in /  1002.9 hPa WNW 16.0 mph /  25.7 km/h 24.0 mph /  38.6 km/h 87 % 0.00 in /  0 mm 11 W/m2
08:50 37.3 °F /  2.9 °C 33.2 °F /  0.7 °C 29.63 in /  1003.3 hPa WNW 16.0 mph /  25.7 km/h 16.0 mph /  25.7 km/h 85 % 0.00 in /  0 mm 14 W/m2
08:55 37.5 °F /  3.1 °C 33.1 °F /  0.6 °C 29.64 in /  1003.6 hPa WNW 16.0 mph /  25.7 km/h 18.0 mph /  29 km/h 84 % 0.00 in /  0 mm 12 W/m2
09:00 37.5 °F /  3.1 °C 33.1 °F /  0.6 °C 29.64 in /  1003.6 hPa NW 15.0 mph /  24.1 km/h 18.0 mph /  29 km/h 84 % 0.00 in /  0 mm 16 W/m2
09:05 37.5 °F /  3.1 °C 32.8 °F /  0.4 °C 29.65 in /  1003.9 hPa NNW 15.0 mph /  24.1 km/h 24.0 mph /  38.6 km/h 83 % 0.00 in /  0 mm 14 W/m2
09:10 37.6 °F /  3.1 °C 32.6 °F /  0.3 °C 29.65 in /  1003.9 hPa NW 16.0 mph /  25.7 km/h 16.0 mph /  25.7 km/h 82 % 0.00 in /  0 mm 16 W/m2
09:15 37.6 °F /  3.1 °C 32.6 °F /  0.3 °C 29.66 in /  1004.3 hPa NW 14.0 mph /  22.5 km/h 18.0 mph /  29 km/h 82 % 0.00 in /  0 mm 16 W/m2
09:25 37.5 °F /  3.1 °C 32.5 °F /  0.3 °C 29.67 in /  1004.6 hPa West 14.0 mph /  22.5 km/h 18.0 mph /  29 km/h 82 % 0.00 in /  0 mm 26 W/m2
09:35 37.7 °F /  3.2 °C 33.0 °F /  0.6 °C 29.69 in /  1005.3 hPa West 13.0 mph /  20.9 km/h 18.0 mph /  29 km/h 83 % 0.00 in /  0 mm 160 W/m2
09:40 38.0 °F /  3.3 °C 33.3 °F /  0.7 °C 29.69 in /  1005.3 hPa WNW 14.0 mph /  22.5 km/h 18.0 mph /  29 km/h 83 % 0.00 in /  0 mm 153 W/m2
09:45 38.3 °F /  3.5 °C 33.3 °F /  0.7 °C 29.70 in /  1005.6 hPa NW 15.0 mph /  24.1 km/h 18.0 mph /  29 km/h 82 % 0.00 in /  0 mm 158 W/m2
09:50 38.6 °F /  3.7 °C 33.3 °F /  0.7 °C 29.70 in /  1005.6 hPa West 15.0 mph /  24.1 km/h 21.0 mph /  33.8 km/h 81 % 0.00 in /  0 mm 162 W/m2
09:55 38.9 °F /  3.8 °C 33.3 °F /  0.7 °C 29.71 in /  1006 hPa WNW 15.0 mph /  24.1 km/h 21.0 mph /  33.8 km/h 80 % 0.00 in /  0 mm 197 W/m2
10:00 39.2 °F /  4 °C 33.2 °F /  0.7 °C 29.72 in /  1006.3 hPa WNW 14.0 mph /  22.5 km/h 14.0 mph /  22.5 km/h 79 % 0.00 in /  0 mm 207 W/m2
10:10 39.0 °F /  3.9 °C 32.7 °F /  0.4 °C 29.73 in /  1006.7 hPa West 14.0 mph /  22.5 km/h 14.0 mph /  22.5 km/h 78 % 0.00 in /  0 mm 67 W/m2
10:15 38.9 °F /  3.8 °C 32.6 °F /  0.3 °C 29.73 in /  1006.7 hPa West 13.0 mph /  20.9 km/h 18.0 mph /  29 km/h 78 % 0.00 in /  0 mm 70 W/m2
10:20 38.9 °F /  3.8 °C 32.9 °F /  0.5 °C 29.73 in /  1006.7 hPa West 12.0 mph /  19.3 km/h 18.0 mph /  29 km/h 79 % 0.00 in /  0 mm 95 W/m2
10:30 38.8 °F /  3.8 °C 32.8 °F /  0.4 °C 29.74 in /  1007 hPa West 12.0 mph /  19.3 km/h 12.0 mph /  19.3 km/h 79 % 0.00 in /  0 mm 84 W/m2
10:35 38.8 °F /  3.8 °C 32.8 °F /  0.4 °C 29.74 in /  1007 hPa NW 11.0 mph /  17.7 km/h 18.0 mph /  29 km/h 79 % 0.00 in /  0 mm 69 W/m2
10:40 38.7 °F /  3.7 °C 32.7 °F /  0.4 °C 29.75 in /  1007.3 hPa WNW 11.0 mph /  17.7 km/h 18.0 mph /  29 km/h 79 % 0.00 in /  0 mm 79 W/m2
10:45 38.7 °F /  3.7 °C 33.1 °F /  0.6 °C 29.75 in /  1007.3 hPa WNW 11.0 mph /  17.7 km/h 18.0 mph /  29 km/h 80 % 0.00 in /  0 mm 125 W/m2
10:50 38.7 °F /  3.7 °C 32.7 °F /  0.4 °C 29.75 in /  1007.3 hPa WNW 12.0 mph /  19.3 km/h 18.0 mph /  29 km/h 79 % 0.00 in /  0 mm 105 W/m2
10:55 38.8 °F /  3.8 °C 32.8 °F /  0.4 °C 29.75 in /  1007.3 hPa NW 12.0 mph /  19.3 km/h 18.0 mph /  29 km/h 79 % 0.00 in /  0 mm 114 W/m2
11:05 39.4 °F /  4.1 °C 33.4 °F /  0.8 °C 29.75 in /  1007.3 hPa WNW 13.0 mph /  20.9 km/h 14.0 mph /  22.5 km/h 79 % 0.00 in /  0 mm 294 W/m2
11:10 40.0 °F /  4.4 °C 33.7 °F /  0.9 °C 29.76 in /  1007.7 hPa WNW 14.0 mph /  22.5 km/h 14.0 mph /  22.5 km/h 78 % 0.00 in /  0 mm 308 W/m2
11:15 40.5 °F /  4.7 °C 33.9 °F /  1.1 °C 29.76 in /  1007.7 hPa WNW 13.0 mph /  20.9 km/h 15.0 mph /  24.1 km/h 77 % 0.00 in /  0 mm 320 W/m2
11:20 41.0 °F /  5 °C 34.0 °F /  1.1 °C 29.76 in /  1007.7 hPa NW 14.0 mph /  22.5 km/h 18.0 mph /  29 km/h 76 % 0.00 in /  0 mm 341 W/m2
11:25 41.4 °F /  5.2 °C 34.1 °F /  1.2 °C 29.77 in /  1008 hPa WNW 14.0 mph /  22.5 km/h 18.0 mph /  29 km/h 75 % 0.00 in /  0 mm 385 W/m2
11:30 41.9 °F /  5.5 °C 34.2 °F /  1.2 °C 29.77 in /  1008 hPa WNW 12.0 mph /  19.3 km/h 18.0 mph /  29 km/h 74 % 0.00 in /  0 mm 390 W/m2
11:40 42.1 °F /  5.6 °C 34.1 °F /  1.2 °C 29.78 in /  1008.4 hPa NW 11.0 mph /  17.7 km/h 11.0 mph /  17.7 km/h 73 % 0.00 in /  0 mm 178 W/m2
11:45 41.9 °F /  5.5 °C 33.5 °F /  0.8 °C 29.78 in /  1008.4 hPa WNW 12.0 mph /  19.3 km/h 12.0 mph /  19.3 km/h 72 % 0.00 in /  0 mm 116 W/m2
11:50 41.5 °F /  5.3 °C 33.1 °F /  0.6 °C 29.78 in /  1008.4 hPa WNW 12.0 mph /  19.3 km/h 18.0 mph /  29 km/h 72 % 0.00 in /  0 mm 125 W/m2
11:55 41.3 °F /  5.2 °C 33.3 °F /  0.7 °C 29.79 in /  1008.7 hPa NW 11.0 mph /  17.7 km/h 18.0 mph /  29 km/h 73 % 0.00 in /  0 mm 95 W/m2
12:00 41.0 °F /  5 °C 33.3 °F /  0.7 °C 29.79 in /  1008.7 hPa WNW 11.0 mph /  17.7 km/h 18.0 mph /  29 km/h 74 % 0.00 in /  0 mm 97 W/m2
12:05 40.8 °F /  4.9 °C 33.2 °F /  0.7 °C 29.80 in /  1009 hPa NNW 12.0 mph /  19.3 km/h 18.0 mph /  29 km/h 74 % 0.00 in /  0 mm 149 W/m2
12:10 40.7 °F /  4.8 °C 33.1 °F /  0.6 °C 29.79 in /  1008.7 hPa WNW 13.0 mph /  20.9 km/h 28.0 mph /  45.1 km/h 74 % 0.00 in /  0 mm 155 W/m2
12:20 41.5 °F /  5.3 °C 33.8 °F /  1 °C 29.80 in /  1009 hPa WNW 12.0 mph /  19.3 km/h 20.0 mph /  32.2 km/h 74 % 0.00 in /  0 mm 186 W/m2
12:25 41.6 °F /  5.3 °C 33.6 °F /  0.9 °C 29.80 in /  1009 hPa NW 11.0 mph /  17.7 km/h 20.0 mph /  32.2 km/h 73 % 0.00 in /  0 mm 121 W/m2
12:30 41.3 °F /  5.2 °C 32.6 °F /  0.3 °C 29.80 in /  1009 hPa WNW 12.0 mph /  19.3 km/h 18.0 mph /  29 km/h 71 % 0.00 in /  0 mm 102 W/m2
12:35 41.1 °F /  5.1 °C 33.1 °F /  0.6 °C 29.80 in /  1009 hPa WNW 12.0 mph /  19.3 km/h 18.0 mph /  29 km/h 73 % 0.00 in /  0 mm 100 W/m2
12:40 41.0 °F /  5 °C 32.7 °F /  0.4 °C 29.81 in /  1009.4 hPa NW 11.0 mph /  17.7 km/h 18.0 mph /  29 km/h 72 % 0.00 in /  0 mm 95 W/m2
12:45 41.0 °F /  5 °C 33.0 °F /  0.6 °C 29.81 in /  1009.4 hPa West 10.0 mph /  16.1 km/h 18.0 mph /  29 km/h 73 % 0.00 in /  0 mm 91 W/m2
12:55 40.9 °F /  4.9 °C 32.9 °F /  0.5 °C 29.82 in /  1009.7 hPa NNE 11.0 mph /  17.7 km/h 11.0 mph /  17.7 km/h 73 % 0.00 in /  0 mm 104 W/m2
13:00 40.9 °F /  4.9 °C 32.9 °F /  0.5 °C 29.82 in /  1009.7 hPa WNW 11.0 mph /  17.7 km/h 18.0 mph /  29 km/h 73 % 0.00 in /  0 mm 81 W/m2
13:05 40.9 °F /  4.9 °C 32.6 °F /  0.3 °C 29.82 in /  1009.7 hPa NW 11.0 mph /  17.7 km/h 18.0 mph /  29 km/h 72 % 0.00 in /  0 mm 88 W/m2
13:10 40.9 °F /  4.9 °C 32.6 °F /  0.3 °C 29.82 in /  1009.7 hPa NW 12.0 mph /  19.3 km/h 12.0 mph /  19.3 km/h 72 % 0.00 in /  0 mm 135 W/m2
13:15 41.0 °F /  5 °C 32.7 °F /  0.4 °C 29.82 in /  1009.7 hPa North 11.0 mph /  17.7 km/h 18.0 mph /  29 km/h 72 % 0.00 in /  0 mm 155 W/m2
13:20 41.1 °F /  5.1 °C 32.4 °F /  0.2 °C 29.82 in /  1009.7 hPa WNW 10.0 mph /  16.1 km/h 18.0 mph /  29 km/h 71 % 0.00 in /  0 mm 125 W/m2
13:25 41.2 °F /  5.1 °C 32.5 °F /  0.3 °C 29.83 in /  1010 hPa NNW 11.0 mph /  17.7 km/h 18.0 mph /  29 km/h 71 % 0.00 in /  0 mm 111 W/m2
13:35 41.3 °F /  5.2 °C 32.6 °F /  0.3 °C 29.83 in /  1010 hPa NW 10.0 mph /  16.1 km/h 18.0 mph /  29 km/h 71 % 0.00 in /  0 mm 95 W/m2
13:45 41.2 °F /  5.1 °C 32.2 °F /  0.1 °C 29.83 in /  1010 hPa NW 11.0 mph /  17.7 km/h 18.0 mph /  29 km/h 70 % 0.00 in /  0 mm 128 W/m2
13:50 41.3 °F /  5.2 °C 32.2 °F /  0.1 °C 29.83 in /  1010 hPa WNW 12.0 mph /  19.3 km/h 12.0 mph /  19.3 km/h 70 % 0.00 in /  0 mm 107 W/m2
13:55 41.3 °F /  5.2 °C 32.2 °F /  0.1 °C 29.83 in /  1010 hPa WNW 13.0 mph /  20.9 km/h 14.0 mph /  22.5 km/h 70 % 0.00 in /  0 mm 93 W/m2
14:00 41.2 °F /  5.1 °C 32.2 °F /  0.1 °C 29.83 in /  1010 hPa WNW 13.0 mph /  20.9 km/h 13.0 mph /  20.9 km/h 70 % 0.00 in /  0 mm 109 W/m2
14:05 41.2 °F /  5.1 °C 32.2 °F /  0.1 °C 29.84 in /  1010.4 hPa WNW 11.0 mph /  17.7 km/h 18.0 mph /  29 km/h 70 % 0.00 in /  0 mm 116 W/m2
14:10 41.3 °F /  5.2 °C 32.2 °F /  0.1 °C 29.84 in /  1010.4 hPa NNW 10.0 mph /  16.1 km/h 10.0 mph /  16.1 km/h 70 % 0.00 in /  0 mm 134 W/m2
14:20 41.4 °F /  5.2 °C 32.3 °F /  0.2 °C 29.85 in /  1010.7 hPa WNW 11.0 mph /  17.7 km/h 18.0 mph /  29 km/h 70 % 0.00 in /  0 mm 77 W/m2
14:25 41.3 °F /  5.2 °C 32.2 °F /  0.1 °C 29.85 in /  1010.7 hPa WNW 11.0 mph /  17.7 km/h 18.0 mph /  29 km/h 70 % 0.00 in /  0 mm 69 W/m2
14:30 41.2 °F /  5.1 °C 31.8 °F /  -0.1 °C 29.85 in /  1010.7 hPa NW 11.0 mph /  17.7 km/h 11.0 mph /  17.7 km/h 69 % 0.00 in /  0 mm 65 W/m2
14:35 41.0 °F /  5 °C 31.6 °F /  -0.2 °C 29.85 in /  1010.7 hPa WNW 12.0 mph /  19.3 km/h 12.0 mph /  19.3 km/h 69 % 0.00 in /  0 mm 60 W/m2
14:40 40.9 °F /  4.9 °C 31.5 °F /  -0.3 °C 29.85 in /  1010.7 hPa NW 12.0 mph /  19.3 km/h 18.0 mph /  29 km/h 69 % 0.00 in /  0 mm 33 W/m2
14:45 40.7 °F /  4.8 °C 31.3 °F /  -0.4 °C 29.86 in /  1011.1 hPa WNW 12.0 mph /  19.3 km/h 18.0 mph /  29 km/h 69 % 0.00 in /  0 mm 19 W/m2
14:50 40.6 °F /  4.8 °C 31.2 °F /  -0.4 °C 29.86 in /  1011.1 hPa WNW 11.0 mph /  17.7 km/h 11.0 mph /  17.7 km/h 69 % 0.00 in /  0 mm 28 W/m2
15:00 40.4 °F /  4.7 °C 30.7 °F /  -0.7 °C 29.87 in /  1011.4 hPa WNW 10.0 mph /  16.1 km/h 18.0 mph /  29 km/h 68 % 0.00 in /  0 mm 53 W/m2
15:05 40.4 °F /  4.7 °C 30.7 °F /  -0.7 °C 29.87 in /  1011.4 hPa NW 13.0 mph /  20.9 km/h 18.0 mph /  29 km/h 68 % 0.00 in /  0 mm 42 W/m2
15:10 40.3 °F /  4.6 °C 30.6 °F /  -0.8 °C 29.87 in /  1011.4 hPa NW 13.0 mph /  20.9 km/h 13.0 mph /  20.9 km/h 68 % 0.00 in /  0 mm 39 W/m2
15:15 40.3 °F /  4.6 °C 30.6 °F /  -0.8 °C 29.87 in /  1011.4 hPa NW 12.0 mph /  19.3 km/h 15.0 mph /  24.1 km/h 68 % 0.00 in /  0 mm 72 W/m2
15:20 40.3 °F /  4.6 °C 30.6 °F /  -0.8 °C 29.87 in /  1011.4 hPa WNW 12.0 mph /  19.3 km/h 21.0 mph /  33.8 km/h 68 % 0.00 in /  0 mm 56 W/m2
15:25 40.2 °F /  4.6 °C 30.5 °F /  -0.8 °C 29.88 in /  1011.7 hPa WNW 13.0 mph /  20.9 km/h 21.0 mph /  33.8 km/h 68 % 0.00 in /  0 mm 39 W/m2
15:35 40.1 °F /  4.5 °C 30.4 °F /  -0.9 °C 29.88 in /  1011.7 hPa WNW 10.0 mph /  16.1 km/h 18.0 mph /  29 km/h 68 % 0.00 in /  0 mm 35 W/m2
15:40 40.0 °F /  4.4 °C 30.3 °F /  -0.9 °C 29.87 in /  1011.4 hPa West 10.0 mph /  16.1 km/h 18.0 mph /  29 km/h 68 % 0.00 in /  0 mm 23 W/m2
15:45 39.7 °F /  4.3 °C 30.0 °F /  -1.1 °C 29.87 in /  1011.4 hPa NNW 11.0 mph /  17.7 km/h 18.0 mph /  29 km/h 68 % 0.00 in /  0 mm 19 W/m2
15:50 39.5 °F /  4.2 °C 29.8 °F /  -1.2 °C 29.88 in /  1011.7 hPa WNW 12.0 mph /  19.3 km/h 12.0 mph /  19.3 km/h 68 % 0.00 in /  0 mm 16 W/m2
15:55 39.2 °F /  4 °C 29.5 °F /  -1.4 °C 29.88 in /  1011.7 hPa NW 10.0 mph /  16.1 km/h 18.0 mph /  29 km/h 68 % 0.00 in /  0 mm 12 W/m2
16:00 39.0 °F /  3.9 °C 29.7 °F /  -1.3 °C 29.89 in /  1012.1 hPa West 10.0 mph /  16.1 km/h 18.0 mph /  29 km/h 69 % 0.00 in /  0 mm 9 W/m2
16:05 38.8 °F /  3.8 °C 29.5 °F /  -1.4 °C 29.89 in /  1012.1 hPa NW 10.0 mph /  16.1 km/h 18.0 mph /  29 km/h 69 % 0.00 in /  0 mm 7 W/m2
16:15 38.4 °F /  3.6 °C 29.1 °F /  -1.6 °C 29.90 in /  1012.4 hPa WNW 10.0 mph /  16.1 km/h 18.0 mph /  29 km/h 69 % 0.00 in /  0 mm 5 W/m2
16:20 38.2 °F /  3.4 °C 29.3 °F /  -1.5 °C 29.90 in /  1012.4 hPa WNW 10.0 mph /  16.1 km/h 18.0 mph /  29 km/h 70 % 0.00 in /  0 mm 0 W/m2
16:25 38.1 °F /  3.4 °C 29.2 °F /  -1.6 °C 29.90 in /  1012.4 hPa NW 11.0 mph /  17.7 km/h 18.0 mph /  29 km/h 70 % 0.00 in /  0 mm 0 W/m2
16:30 38.0 °F /  3.3 °C 29.4 °F /  -1.4 °C 29.90 in /  1012.4 hPa NW 11.0 mph /  17.7 km/h 18.0 mph /  29 km/h 71 % 0.00 in /  0 mm 0 W/m2
16:35 37.9 °F /  3.3 °C 29.3 °F /  -1.5 °C 29.90 in /  1012.4 hPa WNW 12.0 mph /  19.3 km/h 18.0 mph /  29 km/h 71 % 0.00 in /  0 mm 0 W/m2
16:40 37.8 °F /  3.2 °C 29.6 °F /  -1.3 °C 29.90 in /  1012.4 hPa NW 11.0 mph /  17.7 km/h 18.0 mph /  29 km/h 72 % 0.00 in /  0 mm 0 W/m2
16:50 37.5 °F /  3.1 °C 29.6 °F /  -1.3 °C 29.91 in /  1012.8 hPa WNW 10.0 mph /  16.1 km/h 10.0 mph /  16.1 km/h 73 % 0.00 in /  0 mm 0 W/m2
16:55 37.4 °F /  3 °C 29.5 °F /  -1.4 °C 29.91 in /  1012.8 hPa NW 10.0 mph /  16.1 km/h 11.0 mph /  17.7 km/h 73 % 0.00 in /  0 mm 0 W/m2
17:00 37.3 °F /  2.9 °C 29.4 °F /  -1.4 °C 29.91 in /  1012.8 hPa West 11.0 mph /  17.7 km/h 11.0 mph /  17.7 km/h 73 % 0.00 in /  0 mm 0 W/m2
17:05 37.3 °F /  2.9 °C 29.4 °F /  -1.4 °C 29.92 in /  1013.1 hPa NW 11.0 mph /  17.7 km/h 18.0 mph /  29 km/h 73 % 0.00 in /  0 mm 0 W/m2
17:10 37.2 °F /  2.9 °C 29.3 °F /  -1.5 °C 29.92 in /  1013.1 hPa WNW 10.0 mph /  16.1 km/h 18.0 mph /  29 km/h 73 % 0.00 in /  0 mm 0 W/m2
17:15 37.1 °F /  2.8 °C 29.6 °F /  -1.3 °C 29.92 in /  1013.1 hPa WNW 9.0 mph /  14.5 km/h 18.0 mph /  29 km/h 74 % 0.00 in /  0 mm 0 W/m2
17:20 37.0 °F /  2.8 °C 29.1 °F /  -1.6 °C 29.93 in /  1013.4 hPa WNW 10.0 mph /  16.1 km/h 10.0 mph /  16.1 km/h 73 % 0.00 in /  0 mm 0 W/m2
17:30 36.8 °F /  2.7 °C 28.3 °F /  -2.1 °C 29.93 in /  1013.4 hPa NW 9.0 mph /  14.5 km/h 9.0 mph /  14.5 km/h 71 % 0.00 in /  0 mm 0 W/m2
17:35 36.7 °F /  2.6 °C 28.2 °F /  -2.1 °C 29.92 in /  1013.1 hPa NW 9.0 mph /  14.5 km/h 11.0 mph /  17.7 km/h 71 % 0.00 in /  0 mm 0 W/m2
17:40 36.5 °F /  2.5 °C 28.0 °F /  -2.2 °C 29.93 in /  1013.4 hPa WNW 8.0 mph /  12.9 km/h 8.0 mph /  12.9 km/h 71 % 0.00 in /  0 mm 0 W/m2
17:45 36.4 °F /  2.4 °C 28.2 °F /  -2.1 °C 29.93 in /  1013.4 hPa NW 8.0 mph /  12.9 km/h 18.0 mph /  29 km/h 72 % 0.00 in /  0 mm 0 W/m2
17:50 36.3 °F /  2.4 °C 28.1 °F /  -2.2 °C 29.93 in /  1013.4 hPa NNW 7.0 mph /  11.3 km/h 7.0 mph /  11.3 km/h 72 % 0.00 in /  0 mm 0 W/m2
17:55 36.1 °F /  2.3 °C 27.9 °F /  -2.3 °C 29.93 in /  1013.4 hPa NW 7.0 mph /  11.3 km/h 18.0 mph /  29 km/h 72 % 0.00 in /  0 mm 0 W/m2
18:00 35.9 °F /  2.2 °C 28.1 °F /  -2.2 °C 29.93 in /  1013.4 hPa NW 7.0 mph /  11.3 km/h 18.0 mph /  29 km/h 73 % 0.00 in /  0 mm 0 W/m2
18:05 35.8 °F /  2.1 °C 28.0 °F /  -2.2 °C 29.94 in /  1013.8 hPa WNW 7.0 mph /  11.3 km/h 18.0 mph /  29 km/h 73 % 0.00 in /  0 mm 0 W/m2
18:15 35.8 °F /  2.1 °C 28.3 °F /  -2.1 °C 29.94 in /  1013.8 hPa WNW 7.0 mph /  11.3 km/h 18.0 mph /  29 km/h 74 % 0.00 in /  0 mm 0 W/m2
18:20 35.7 °F /  2.1 °C 28.6 °F /  -1.9 °C 29.94 in /  1013.8 hPa WNW 6.0 mph /  9.7 km/h 6.0 mph /  9.7 km/h 75 % 0.00 in /  0 mm 0 W/m2
18:25 35.5 °F /  1.9 °C 28.7 °F /  -1.8 °C 29.94 in /  1013.8 hPa West 5.0 mph /  8 km/h 18.0 mph /  29 km/h 76 % 0.00 in /  0 mm 0 W/m2
18:30 35.4 °F /  1.9 °C 28.9 °F /  -1.7 °C 29.95 in /  1014.1 hPa WNW 6.0 mph /  9.7 km/h 18.0 mph /  29 km/h 77 % 0.00 in /  0 mm 0 W/m2
18:35 35.2 °F /  1.8 °C 28.7 °F /  -1.8 °C 29.95 in /  1014.1 hPa NW 6.0 mph /  9.7 km/h 18.0 mph /  29 km/h 77 % 0.00 in /  0 mm 0 W/m2
18:45 35.1 °F /  1.7 °C 28.9 °F /  -1.7 °C 29.96 in /  1014.4 hPa WNW 6.0 mph /  9.7 km/h 18.0 mph /  29 km/h 78 % 0.00 in /  0 mm 0 W/m2
18:50 35.0 °F /  1.7 °C 28.8 °F /  -1.8 °C 29.96 in /  1014.4 hPa WNW 6.0 mph /  9.7 km/h 18.0 mph /  29 km/h 78 % 0.00 in /  0 mm 0 W/m2
18:55 34.9 °F /  1.6 °C 29.0 °F /  -1.7 °C 29.96 in /  1014.4 hPa NW 6.0 mph /  9.7 km/h 18.0 mph /  29 km/h 79 % 0.00 in /  0 mm 0 W/m2
19:00 34.8 °F /  1.6 °C 29.0 °F /  -1.7 °C 29.96 in /  1014.4 hPa WNW 5.0 mph /  8 km/h 5.0 mph /  8 km/h 79 % 0.00 in /  0 mm 0 W/m2
19:05 34.7 °F /  1.5 °C 28.9 °F /  -1.7 °C 29.96 in /  1014.4 hPa NW 6.0 mph /  9.7 km/h 6.0 mph /  9.7 km/h 79 % 0.00 in /  0 mm 0 W/m2
19:10 34.7 °F /  1.5 °C 29.2 °F /  -1.6 °C 29.96 in /  1014.4 hPa WNW 6.0 mph /  9.7 km/h 18.0 mph /  29 km/h 80 % 0.00 in /  0 mm 0 W/m2
19:20 34.5 °F /  1.4 °C 29.0 °F /  -1.7 °C 29.97 in /  1014.8 hPa NW 6.0 mph /  9.7 km/h 18.0 mph /  29 km/h 80 % 0.00 in /  0 mm 0 W/m2
19:25 34.4 °F /  1.3 °C 28.9 °F /  -1.7 °C 29.97 in /  1014.8 hPa NW 6.0 mph /  9.7 km/h 18.0 mph /  29 km/h 80 % 0.00 in /  0 mm 0 W/m2
19:30 34.3 °F /  1.3 °C 28.8 °F /  -1.8 °C 29.97 in /  1014.8 hPa WNW 6.0 mph /  9.7 km/h 18.0 mph /  29 km/h 80 % 0.00 in /  0 mm 0 W/m2
19:35 34.3 °F /  1.3 °C 29.1 °F /  -1.6 °C 29.97 in /  1014.8 hPa WNW 6.0 mph /  9.7 km/h 18.0 mph /  29 km/h 81 % 0.00 in /  0 mm 0 W/m2
19:40 34.1 °F /  1.2 °C 28.9 °F /  -1.7 °C 29.97 in /  1014.8 hPa WNW 5.0 mph /  8 km/h 18.0 mph /  29 km/h 81 % 0.00 in /  0 mm 0 W/m2
19:50 33.8 °F /  1 °C 28.6 °F /  -1.9 °C 29.96 in /  1014.4 hPa WNW 6.0 mph /  9.7 km/h 6.0 mph /  9.7 km/h 81 % 0.00 in /  0 mm 0 W/m2
19:55 33.7 °F /  0.9 °C 28.8 °F /  -1.8 °C 29.96 in /  1014.4 hPa West 7.0 mph /  11.3 km/h 9.0 mph /  14.5 km/h 82 % 0.00 in /  0 mm 0 W/m2
20:00 33.6 °F /  0.9 °C 28.7 °F /  -1.8 °C 29.97 in /  1014.8 hPa WNW 7.0 mph /  11.3 km/h 18.0 mph /  29 km/h 82 % 0.00 in /  0 mm 0 W/m2
20:05 33.6 °F /  0.9 °C 28.7 °F /  -1.8 °C 29.97 in /  1014.8 hPa WNW 7.0 mph /  11.3 km/h 18.0 mph /  29 km/h 82 % 0.00 in /  0 mm 0 W/m2
20:10 33.5 °F /  0.8 °C 28.6 °F /  -1.9 °C 29.97 in /  1014.8 hPa WNW 7.0 mph /  11.3 km/h 7.0 mph /  11.3 km/h 82 % 0.00 in /  0 mm 0 W/m2
20:20 33.5 °F /  0.8 °C 28.6 °F /  -1.9 °C 29.97 in /  1014.8 hPa WNW 7.0 mph /  11.3 km/h 7.0 mph /  11.3 km/h 82 % 0.00 in /  0 mm 0 W/m2
20:25 33.4 °F /  0.8 °C 28.5 °F /  -1.9 °C 29.97 in /  1014.8 hPa WNW 6.0 mph /  9.7 km/h 18.0 mph /  29 km/h 82 % 0.00 in /  0 mm 0 W/m2
20:35 33.0 °F /  0.6 °C 28.1 °F /  -2.2 °C 29.98 in /  1015.1 hPa WNW 6.0 mph /  9.7 km/h 18.0 mph /  29 km/h 82 % 0.00 in /  0 mm 0 W/m2
20:40 32.9 °F /  0.5 °C 28.3 °F /  -2.1 °C 29.98 in /  1015.1 hPa WNW 6.0 mph /  9.7 km/h 6.0 mph /  9.7 km/h 83 % 0.00 in /  0 mm 0 W/m2
20:45 32.8 °F /  0.4 °C 27.9 °F /  -2.3 °C 29.98 in /  1015.1 hPa WNW 6.0 mph /  9.7 km/h 8.0 mph /  12.9 km/h 82 % 0.00 in /  0 mm 0 W/m2
20:50 32.7 °F /  0.4 °C 28.1 °F /  -2.2 °C 29.98 in /  1015.1 hPa WNW 6.0 mph /  9.7 km/h 6.0 mph /  9.7 km/h 83 % 0.00 in /  0 mm 0 W/m2
20:55 32.6 °F /  0.3 °C 28.0 °F /  -2.2 °C 29.99 in /  1015.5 hPa WNW 5.0 mph /  8 km/h 18.0 mph /  29 km/h 83 % 0.00 in /  0 mm 0 W/m2
21:00 32.5 °F /  0.3 °C 27.9 °F /  -2.3 °C 29.99 in /  1015.5 hPa WNW 6.0 mph /  9.7 km/h 18.0 mph /  29 km/h 83 % 0.00 in /  0 mm 0 W/m2
21:10 32.3 °F /  0.2 °C 27.7 °F /  -2.4 °C 29.99 in /  1015.5 hPa WNW 6.0 mph /  9.7 km/h 18.0 mph /  29 km/h 83 % 0.00 in /  0 mm 0 W/m2
21:15 32.2 °F /  0.1 °C 27.6 °F /  -2.4 °C 29.99 in /  1015.5 hPa WNW 6.0 mph /  9.7 km/h 18.0 mph /  29 km/h 83 % 0.00 in /  0 mm 0 W/m2
21:20 32.2 °F /  0.1 °C 27.6 °F /  -2.4 °C 29.99 in /  1015.5 hPa WNW 5.0 mph /  8 km/h 18.0 mph /  29 km/h 83 % 0.00 in /  0 mm 0 W/m2
21:25 32.2 °F /  0.1 °C 27.6 °F /  -2.4 °C 29.99 in /  1015.5 hPa NW 5.0 mph /  8 km/h 18.0 mph /  29 km/h 83 % 0.00 in /  0 mm 0 W/m2
21:30 32.1 °F /  0.1 °C 27.2 °F /  -2.7 °C 30.00 in /  1015.8 hPa WNW 6.0 mph /  9.7 km/h 18.0 mph /  29 km/h 82 % 0.00 in /  0 mm 0 W/m2
21:35 32.2 °F /  0.1 °C 27.3 °F /  -2.6 °C 30.00 in /  1015.8 hPa NW 6.0 mph /  9.7 km/h 18.0 mph /  29 km/h 82 % 0.00 in /  0 mm 0 W/m2
21:40 32.4 °F /  0.2 °C 27.2 °F /  -2.7 °C 30.00 in /  1015.8 hPa WNW 7.0 mph /  11.3 km/h 7.0 mph /  11.3 km/h 81 % 0.00 in /  0 mm 0 W/m2
21:50 32.5 °F /  0.3 °C 27.0 °F /  -2.8 °C 30.00 in /  1015.8 hPa WNW 7.0 mph /  11.3 km/h 7.0 mph /  11.3 km/h 80 % 0.00 in /  0 mm 0 W/m2
21:55 32.5 °F /  0.3 °C 27.0 °F /  -2.8 °C 29.99 in /  1015.5 hPa WNW 7.0 mph /  11.3 km/h 18.0 mph /  29 km/h 80 % 0.00 in /  0 mm 0 W/m2
22:00 32.6 °F /  0.3 °C 27.1 °F /  -2.7 °C 30.00 in /  1015.8 hPa NW 7.0 mph /  11.3 km/h 7.0 mph /  11.3 km/h 80 % 0.00 in /  0 mm 0 W/m2
22:10 32.8 °F /  0.4 °C 27.0 °F /  -2.8 °C 30.00 in /  1015.8 hPa NW 9.0 mph /  14.5 km/h 18.0 mph /  29 km/h 79 % 0.00 in /  0 mm 0 W/m2
22:15 32.8 °F /  0.4 °C 26.7 °F /  -2.9 °C 30.00 in /  1015.8 hPa NW 8.0 mph /  12.9 km/h 18.0 mph /  29 km/h 78 % 0.00 in /  0 mm 0 W/m2
22:20 32.8 °F /  0.4 °C 26.7 °F /  -2.9 °C 30.00 in /  1015.8 hPa NW 8.0 mph /  12.9 km/h 8.0 mph /  12.9 km/h 78 % 0.00 in /  0 mm 0 W/m2
22:30 32.8 °F /  0.4 °C 26.4 °F /  -3.1 °C 30.00 in /  1015.8 hPa WNW 7.0 mph /  11.3 km/h 7.0 mph /  11.3 km/h 77 % 0.00 in /  0 mm 0 W/m2
22:35 32.7 °F /  0.4 °C 26.0 °F /  -3.3 °C 30.00 in /  1015.8 hPa WNW 6.0 mph /  9.7 km/h 10.0 mph /  16.1 km/h 76 % 0.00 in /  0 mm 0 W/m2
22:40 32.8 °F /  0.4 °C 26.1 °F /  -3.3 °C 30.00 in /  1015.8 hPa NW 6.0 mph /  9.7 km/h 6.0 mph /  9.7 km/h 76 % 0.00 in /  0 mm 0 W/m2
22:45 32.7 °F /  0.4 °C 25.6 °F /  -3.6 °C 30.00 in /  1015.8 hPa WNW 6.0 mph /  9.7 km/h 18.0 mph /  29 km/h 75 % 0.00 in /  0 mm 0 W/m2
22:50 32.8 °F /  0.4 °C 25.7 °F /  -3.5 °C 30.00 in /  1015.8 hPa West 7.0 mph /  11.3 km/h 18.0 mph /  29 km/h 75 % 0.00 in /  0 mm 0 W/m2
22:55 32.9 °F /  0.5 °C 25.8 °F /  -3.4 °C 30.00 in /  1015.8 hPa West 9.0 mph /  14.5 km/h 18.0 mph /  29 km/h 75 % 0.00 in /  0 mm 0 W/m2
23:00 33.0 °F /  0.6 °C 25.6 °F /  -3.6 °C 30.00 in /  1015.8 hPa WNW 9.0 mph /  14.5 km/h 18.0 mph /  29 km/h 74 % 0.00 in /  0 mm 0 W/m2
23:10 33.2 °F /  0.7 °C 25.5 °F /  -3.6 °C 30.00 in /  1015.8 hPa WNW 9.0 mph /  14.5 km/h 9.0 mph /  14.5 km/h 73 % 0.00 in /  0 mm 0 W/m2
23:15 33.2 °F /  0.7 °C 25.1 °F /  -3.8 °C 30.00 in /  1015.8 hPa WNW 8.0 mph /  12.9 km/h 18.0 mph /  29 km/h 72 % 0.00 in /  0 mm 0 W/m2
23:20 33.1 °F /  0.6 °C 25.1 °F /  -3.8 °C 30.00 in /  1015.8 hPa West 7.0 mph /  11.3 km/h 18.0 mph /  29 km/h 72 % 0.00 in /  0 mm 0 W/m2
23:25 33.0 °F /  0.6 °C 25.0 °F /  -3.9 °C 30.00 in /  1015.8 hPa WNW 7.0 mph /  11.3 km/h 18.0 mph /  29 km/h 72 % 0.00 in /  0 mm 0 W/m2
23:30 32.9 °F /  0.5 °C 24.5 °F /  -4.2 °C 30.00 in /  1015.8 hPa WNW 6.0 mph /  9.7 km/h 6.0 mph /  9.7 km/h 71 % 0.00 in /  0 mm 0 W/m2
23:35 32.8 °F /  0.4 °C 24.8 °F /  -4 °C 30.00 in /  1015.8 hPa WNW 6.0 mph /  9.7 km/h 18.0 mph /  29 km/h 72 % 0.00 in /  0 mm 0 W/m2
23:45 32.5 °F /  0.3 °C 24.5 °F /  -4.2 °C 30.00 in /  1015.8 hPa WNW 5.0 mph /  8 km/h 18.0 mph /  29 km/h 72 % 0.00 in /  0 mm 0 W/m2
23:50 32.4 °F /  0.2 °C 24.7 °F /  -4.1 °C 30.00 in /  1015.8 hPa West 5.0 mph /  8 km/h 18.0 mph /  29 km/h 73 % 0.00 in /  0 mm 0 W/m2
23:55 32.3 °F /  0.2 °C 24.6 °F /  -4.1 °C 30.00 in /  1015.8 hPa WNW 5.0 mph /  8 km/h 18.0 mph /  29 km/h 73 % 0.00 in /  0 mm 0 W/m2
Delerius-Weather
Compliments of Weather Underground - 2 mb

Data updates at regular intervals.